sensor_id;sensor_type;location;lat;lon;timestamp;temperature;humidity
74484;SHT31;62942;52.462;10.846;2022-10-16T00:00:40;14.5;84.6
74484;SHT31;62942;52.462;10.846;2022-10-16T00:01:39;14.5;84.6
74484;SHT31;62942;52.462;10.846;2022-10-16T00:02:49;14.5;84.5
74484;SHT31;62942;52.462;10.846;2022-10-16T00:04:00;14.4;84.4
74484;SHT31;62942;52.462;10.846;2022-10-16T00:04:59;14.4;84.3
74484;SHT31;62942;52.462;10.846;2022-10-16T00:06:09;14.4;84.2
74484;SHT31;62942;52.462;10.846;2022-10-16T00:07:19;14.4;84
74484;SHT31;62942;52.462;10.846;2022-10-16T00:08:19;14.4;84
74484;SHT31;62942;52.462;10.846;2022-10-16T00:09:29;14.3;83.9
74484;SHT31;62942;52.462;10.846;2022-10-16T00:10:39;14.3;83.8
74484;SHT31;62942;52.462;10.846;2022-10-16T00:11:39;14.3;83.8
74484;SHT31;62942;52.462;10.846;2022-10-16T00:12:39;14.3;83.7
74484;SHT31;62942;52.462;10.846;2022-10-16T00:13:50;14.2;83.8
74484;SHT31;62942;52.462;10.846;2022-10-16T00:14:59;14.2;83.8
74484;SHT31;62942;52.462;10.846;2022-10-16T00:16:00;14.2;83.7
74484;SHT31;62942;52.462;10.846;2022-10-16T00:17:09;14.2;83.7
74484;SHT31;62942;52.462;10.846;2022-10-16T00:18:19;14.1;83.6
74484;SHT31;62942;52.462;10.846;2022-10-16T00:19:29;14.1;83.6
74484;SHT31;62942;52.462;10.846;2022-10-16T00:20:29;14.1;83.6
74484;SHT31;62942;52.462;10.846;2022-10-16T00:21:30;14.1;83.6
74484;SHT31;62942;52.462;10.846;2022-10-16T00:22:39;14;83.7
74484;SHT31;62942;52.462;10.846;2022-10-16T00:23:39;14;83.6
74484;SHT31;62942;52.462;10.846;2022-10-16T00:24:49;14;83.6
74484;SHT31;62942;52.462;10.846;2022-10-16T00:26:00;13.9;83.6
74484;SHT31;62942;52.462;10.846;2022-10-16T00:27:09;13.9;83.7
74484;SHT31;62942;52.462;10.846;2022-10-16T00:28:09;13.8;83.7
74484;SHT31;62942;52.462;10.846;2022-10-16T00:29:19;13.8;83.8
74484;SHT31;62942;52.462;10.846;2022-10-16T00:30:19;13.8;83.8
74484;SHT31;62942;52.462;10.846;2022-10-16T00:31:29;13.7;83.9
74484;SHT31;62942;52.462;10.846;2022-10-16T00:32:39;13.7;83.8
74484;SHT31;62942;52.462;10.846;2022-10-16T00:33:49;13.6;83.8
74484;SHT31;62942;52.462;10.846;2022-10-16T00:34:59;13.6;83.8
74484;SHT31;62942;52.462;10.846;2022-10-16T00:35:59;13.6;83.8
74484;SHT31;62942;52.462;10.846;2022-10-16T00:37:09;13.6;83.8
74484;SHT31;62942;52.462;10.846;2022-10-16T00:38:19;13.5;83.8
74484;SHT31;62942;52.462;10.846;2022-10-16T00:39:29;13.5;83.9
74484;SHT31;62942;52.462;10.846;2022-10-16T00:40:39;13.5;84
74484;SHT31;62942;52.462;10.846;2022-10-16T00:41:49;13.4;84
74484;SHT31;62942;52.462;10.846;2022-10-16T00:42:59;13.4;84.1
74484;SHT31;62942;52.462;10.846;2022-10-16T00:44:43;13.4;84.1
74484;SHT31;62942;52.462;10.846;2022-10-16T00:45:19;13.4;84.2
74484;SHT31;62942;52.462;10.846;2022-10-16T00:46:29;13.3;84.3
74484;SHT31;62942;52.462;10.846;2022-10-16T00:47:30;13.3;84.3
74484;SHT31;62942;52.462;10.846;2022-10-16T00:48:39;13.3;84.4
74484;SHT31;62942;52.462;10.846;2022-10-16T00:49:49;13.3;84.5
74484;SHT31;62942;52.462;10.846;2022-10-16T00:50:49;13.3;84.5
74484;SHT31;62942;52.462;10.846;2022-10-16T00:51:59;13.2;84.7
74484;SHT31;62942;52.462;10.846;2022-10-16T00:52:59;13.2;84.7
74484;SHT31;62942;52.462;10.846;2022-10-16T00:53:59;13.2;84.9
74484;SHT31;62942;52.462;10.846;2022-10-16T00:55:09;13.2;85
74484;SHT31;62942;52.462;10.846;2022-10-16T00:56:19;13.2;85.2
74484;SHT31;62942;52.462;10.846;2022-10-16T00:57:19;13.1;85.2
74484;SHT31;62942;52.462;10.846;2022-10-16T00:58:29;13.1;85.2
74484;SHT31;62942;52.462;10.846;2022-10-16T00:59:29;13.1;85.4
74484;SHT31;62942;52.462;10.846;2022-10-16T01:00:39;13.1;85.5
74484;SHT31;62942;52.462;10.846;2022-10-16T01:01:39;13.1;85.7
74484;SHT31;62942;52.462;10.846;2022-10-16T01:02:39;13.1;85.9
74484;SHT31;62942;52.462;10.846;2022-10-16T01:03:49;13;86.2
74484;SHT31;62942;52.462;10.846;2022-10-16T01:04:50;13;86.4
74484;SHT31;62942;52.462;10.846;2022-10-16T01:06:04;13.1;86.6
74484;SHT31;62942;52.462;10.846;2022-10-16T01:07:00;13;86.8
74484;SHT31;62942;52.462;10.846;2022-10-16T01:08:11;13.1;87
74484;SHT31;62942;52.462;10.846;2022-10-16T01:09:11;13.1;87.2
74484;SHT31;62942;52.462;10.846;2022-10-16T01:10:21;13.1;87.3
74484;SHT31;62942;52.462;10.846;2022-10-16T01:11:31;13.1;87.3
74484;SHT31;62942;52.462;10.846;2022-10-16T01:12:40;13.1;87.4
74484;SHT31;62942;52.462;10.846;2022-10-16T01:13:40;13.1;87.4
74484;SHT31;62942;52.462;10.846;2022-10-16T01:14:52;13.1;87.5
74484;SHT31;62942;52.462;10.846;2022-10-16T01:16:00;13.1;87.5
74484;SHT31;62942;52.462;10.846;2022-10-16T01:17:10;13.1;87.4
74484;SHT31;62942;52.462;10.846;2022-10-16T01:18:21;13.1;87.4
74484;SHT31;62942;52.462;10.846;2022-10-16T01:19:20;13.1;87.5
74484;SHT31;62942;52.462;10.846;2022-10-16T01:20:30;13.1;87.6
74484;SHT31;62942;52.462;10.846;2022-10-16T01:21:40;13.1;87.7
74484;SHT31;62942;52.462;10.846;2022-10-16T01:22:54;13.1;87.8
74484;SHT31;62942;52.462;10.846;2022-10-16T01:24:01;13.1;87.9
74484;SHT31;62942;52.462;10.846;2022-10-16T01:25:09;13;88
74484;SHT31;62942;52.462;10.846;2022-10-16T01:26:20;13;88.1
74484;SHT31;62942;52.462;10.846;2022-10-16T01:27:30;13;88.1
74484;SHT31;62942;52.462;10.846;2022-10-16T01:28:39;13;88.3
74484;SHT31;62942;52.462;10.846;2022-10-16T01:29:50;13;88.4
74484;SHT31;62942;52.462;10.846;2022-10-16T01:30:49;13;88.7
74484;SHT31;62942;52.462;10.846;2022-10-16T01:32:00;13;88.8
74484;SHT31;62942;52.462;10.846;2022-10-16T01:33:10;13;88.9
74484;SHT31;62942;52.462;10.846;2022-10-16T01:34:20;13;89
74484;SHT31;62942;52.462;10.846;2022-10-16T01:35:20;13;89.1
74484;SHT31;62942;52.462;10.846;2022-10-16T01:36:31;12.9;89.3
74484;SHT31;62942;52.462;10.846;2022-10-16T01:37:40;13;89.4
74484;SHT31;62942;52.462;10.846;2022-10-16T01:38:49;12.9;89.6
74484;SHT31;62942;52.462;10.846;2022-10-16T01:39:59;12.9;89.8
74484;SHT31;62942;52.462;10.846;2022-10-16T01:40:59;12.9;89.9
74484;SHT31;62942;52.462;10.846;2022-10-16T01:42:10;12.9;90
74484;SHT31;62942;52.462;10.846;2022-10-16T01:43:10;12.9;90.1
74484;SHT31;62942;52.462;10.846;2022-10-16T01:44:19;12.9;90.1
74484;SHT31;62942;52.462;10.846;2022-10-16T01:45:19;12.8;90.1
74484;SHT31;62942;52.462;10.846;2022-10-16T01:46:29;12.8;90.1
74484;SHT31;62942;52.462;10.846;2022-10-16T01:47:39;12.8;90.2
74484;SHT31;62942;52.462;10.846;2022-10-16T01:48:49;12.8;90.3
74484;SHT31;62942;52.462;10.846;2022-10-16T01:49:49;12.8;90.5
74484;SHT31;62942;52.462;10.846;2022-10-16T01:51:01;12.8;90.6
74484;SHT31;62942;52.462;10.846;2022-10-16T01:51:59;12.8;90.8
74484;SHT31;62942;52.462;10.846;2022-10-16T01:53:10;12.8;90.9
74484;SHT31;62942;52.462;10.846;2022-10-16T01:54:09;12.8;91.1
74484;SHT31;62942;52.462;10.846;2022-10-16T01:55:20;12.9;91.3
74484;SHT31;62942;52.462;10.846;2022-10-16T01:56:29;12.9;91.4
74484;SHT31;62942;52.462;10.846;2022-10-16T01:57:39;12.9;91.5
74484;SHT31;62942;52.462;10.846;2022-10-16T01:58:49;12.9;91.6
74484;SHT31;62942;52.462;10.846;2022-10-16T02:00:00;12.9;91.7
74484;SHT31;62942;52.462;10.846;2022-10-16T02:01:09;12.9;91.7
74484;SHT31;62942;52.462;10.846;2022-10-16T02:02:19;13;91.8
74484;SHT31;62942;52.462;10.846;2022-10-16T02:03:19;13;91.8
74484;SHT31;62942;52.462;10.846;2022-10-16T02:04:21;12.9;91.9
74484;SHT31;62942;52.462;10.846;2022-10-16T02:05:30;13;91.9
74484;SHT31;62942;52.462;10.846;2022-10-16T02:06:39;13;92
74484;SHT31;62942;52.462;10.846;2022-10-16T02:07:49;13;92
74484;SHT31;62942;52.462;10.846;2022-10-16T02:08:49;13;92.1
74484;SHT31;62942;52.462;10.846;2022-10-16T02:09:49;13.1;92.1
74484;SHT31;62942;52.462;10.846;2022-10-16T02:10:59;13.1;92.1
74484;SHT31;62942;52.462;10.846;2022-10-16T02:12:10;13.1;92.2
74484;SHT31;62942;52.462;10.846;2022-10-16T02:13:21;13.1;92.2
74484;SHT31;62942;52.462;10.846;2022-10-16T02:14:29;13.1;92.2
74484;SHT31;62942;52.462;10.846;2022-10-16T02:15:39;13.2;92.2
74484;SHT31;62942;52.462;10.846;2022-10-16T02:16:49;13.2;92.3
74484;SHT31;62942;52.462;10.846;2022-10-16T02:17:59;13.2;92.2
74484;SHT31;62942;52.462;10.846;2022-10-16T02:19:09;13.2;92.2
74484;SHT31;62942;52.462;10.846;2022-10-16T02:20:19;13.3;92.2
74484;SHT31;62942;52.462;10.846;2022-10-16T02:21:21;13.3;92.2
74484;SHT31;62942;52.462;10.846;2022-10-16T02:22:30;13.3;92.2
74484;SHT31;62942;52.462;10.846;2022-10-16T02:23:31;13.4;92.1
74484;SHT31;62942;52.462;10.846;2022-10-16T02:24:40;13.3;92
74484;SHT31;62942;52.462;10.846;2022-10-16T02:25:49;13.4;92
74484;SHT31;62942;52.462;10.846;2022-10-16T02:27:00;13.4;91.9
74484;SHT31;62942;52.462;10.846;2022-10-16T02:28:09;13.4;91.9
74484;SHT31;62942;52.462;10.846;2022-10-16T02:29:10;13.4;91.8
74484;SHT31;62942;52.462;10.846;2022-10-16T02:30:21;13.4;91.8
74484;SHT31;62942;52.462;10.846;2022-10-16T02:31:20;13.4;91.7
74484;SHT31;62942;52.462;10.846;2022-10-16T02:32:30;13.4;91.6
74484;SHT31;62942;52.462;10.846;2022-10-16T02:33:39;13.4;91.6
74484;SHT31;62942;52.462;10.846;2022-10-16T02:34:49;13.4;91.5
74484;SHT31;62942;52.462;10.846;2022-10-16T02:35:49;13.4;91.5
74484;SHT31;62942;52.462;10.846;2022-10-16T02:36:59;13.4;91.4
74484;SHT31;62942;52.462;10.846;2022-10-16T02:38:09;13.4;91.4
74484;SHT31;62942;52.462;10.846;2022-10-16T02:39:19;13.4;91.4
74484;SHT31;62942;52.462;10.846;2022-10-16T02:40:29;13.4;91.4
74484;SHT31;62942;52.462;10.846;2022-10-16T02:41:39;13.4;91.4
74484;SHT31;62942;52.462;10.846;2022-10-16T02:42:49;13.4;91.4
74484;SHT31;62942;52.462;10.846;2022-10-16T02:43:49;13.4;91.4
74484;SHT31;62942;52.462;10.846;2022-10-16T02:44:59;13.5;91.4
74484;SHT31;62942;52.462;10.846;2022-10-16T02:45:59;13.5;91.3
74484;SHT31;62942;52.462;10.846;2022-10-16T02:47:09;13.5;91.3
74484;SHT31;62942;52.462;10.846;2022-10-16T02:48:19;13.5;91.3
74484;SHT31;62942;52.462;10.846;2022-10-16T02:49:19;13.5;91.2
74484;SHT31;62942;52.462;10.846;2022-10-16T02:50:29;13.5;91.2
74484;SHT31;62942;52.462;10.846;2022-10-16T02:51:29;13.5;91.2
74484;SHT31;62942;52.462;10.846;2022-10-16T02:52:29;13.5;91.2
74484;SHT31;62942;52.462;10.846;2022-10-16T02:53:39;13.5;91.1
74484;SHT31;62942;52.462;10.846;2022-10-16T02:54:39;13.5;91.1
74484;SHT31;62942;52.462;10.846;2022-10-16T02:55:49;13.5;91
74484;SHT31;62942;52.462;10.846;2022-10-16T02:56:59;13.5;91
74484;SHT31;62942;52.462;10.846;2022-10-16T02:58:09;13.5;91
74484;SHT31;62942;52.462;10.846;2022-10-16T02:59:19;13.4;91
74484;SHT31;62942;52.462;10.846;2022-10-16T03:00:29;13.4;91
74484;SHT31;62942;52.462;10.846;2022-10-16T03:01:39;13.4;91
74484;SHT31;62942;52.462;10.846;2022-10-16T03:02:49;13.4;91
74484;SHT31;62942;52.462;10.846;2022-10-16T03:03:49;13.4;91
74484;SHT31;62942;52.462;10.846;2022-10-16T03:04:59;13.4;91
74484;SHT31;62942;52.462;10.846;2022-10-16T03:06:09;13.4;91
74484;SHT31;62942;52.462;10.846;2022-10-16T03:07:19;13.4;91
74484;SHT31;62942;52.462;10.846;2022-10-16T03:08:29;13.4;90.9
74484;SHT31;62942;52.462;10.846;2022-10-16T03:09:39;13.3;90.9
74484;SHT31;62942;52.462;10.846;2022-10-16T03:10:49;13.3;90.8
74484;SHT31;62942;52.462;10.846;2022-10-16T03:11:59;13.2;90.9
74484;SHT31;62942;52.462;10.846;2022-10-16T03:13:09;13.2;90.9
74484;SHT31;62942;52.462;10.846;2022-10-16T03:14:19;13.2;91
74484;SHT31;62942;52.462;10.846;2022-10-16T03:15:29;13.2;91.1
74484;SHT31;62942;52.462;10.846;2022-10-16T03:16:39;13.2;91.2
74484;SHT31;62942;52.462;10.846;2022-10-16T03:17:39;13.2;91.2
74484;SHT31;62942;52.462;10.846;2022-10-16T03:18:49;13.1;91.3
74484;SHT31;62942;52.462;10.846;2022-10-16T03:19:49;13.1;91.3
74484;SHT31;62942;52.462;10.846;2022-10-16T03:20:59;13.1;91.3
74484;SHT31;62942;52.462;10.846;2022-10-16T03:21:59;13.1;91.3
74484;SHT31;62942;52.462;10.846;2022-10-16T03:23:09;13.1;91.4
74484;SHT31;62942;52.462;10.846;2022-10-16T03:24:09;13.1;91.4
74484;SHT31;62942;52.462;10.846;2022-10-16T03:25:19;13.1;91.5
74484;SHT31;62942;52.462;10.846;2022-10-16T03:26:19;13.1;91.5
74484;SHT31;62942;52.462;10.846;2022-10-16T03:27:29;13.1;91.4
74484;SHT31;62942;52.462;10.846;2022-10-16T03:28:39;13.1;91.5
74484;SHT31;62942;52.462;10.846;2022-10-16T03:29:49;13;91.5
74484;SHT31;62942;52.462;10.846;2022-10-16T03:30:59;13;91.5
74484;SHT31;62942;52.462;10.846;2022-10-16T03:32:09;13;91.5
74484;SHT31;62942;52.462;10.846;2022-10-16T03:33:09;13;91.4
74484;SHT31;62942;52.462;10.846;2022-10-16T03:34:19;13;91.4
74484;SHT31;62942;52.462;10.846;2022-10-16T03:35:19;13;91.4
74484;SHT31;62942;52.462;10.846;2022-10-16T03:36:29;13;91.5
74484;SHT31;62942;52.462;10.846;2022-10-16T03:37:29;12.9;91.5
74484;SHT31;62942;52.462;10.846;2022-10-16T03:38:39;12.9;91.6
74484;SHT31;62942;52.462;10.846;2022-10-16T03:39:49;12.9;91.6
74484;SHT31;62942;52.462;10.846;2022-10-16T03:40:59;12.9;91.7
74484;SHT31;62942;52.462;10.846;2022-10-16T03:41:59;12.9;91.8
74484;SHT31;62942;52.462;10.846;2022-10-16T03:43:09;12.9;91.7
74484;SHT31;62942;52.462;10.846;2022-10-16T03:44:19;12.9;91.8
74484;SHT31;62942;52.462;10.846;2022-10-16T03:45:19;12.8;91.8
74484;SHT31;62942;52.462;10.846;2022-10-16T03:46:19;12.9;91.8
74484;SHT31;62942;52.462;10.846;2022-10-16T03:47:29;12.8;91.9
74484;SHT31;62942;52.462;10.846;2022-10-16T03:48:39;12.8;91.9
74484;SHT31;62942;52.462;10.846;2022-10-16T03:49:49;12.8;92
74484;SHT31;62942;52.462;10.846;2022-10-16T03:50:59;12.8;92
74484;SHT31;62942;52.462;10.846;2022-10-16T03:51:59;12.7;92
74484;SHT31;62942;52.462;10.846;2022-10-16T03:53:09;12.7;92.1
74484;SHT31;62942;52.462;10.846;2022-10-16T03:54:09;12.7;92.2
74484;SHT31;62942;52.462;10.846;2022-10-16T03:55:19;12.7;92.2
74484;SHT31;62942;52.462;10.846;2022-10-16T03:56:29;12.7;92.3
74484;SHT31;62942;52.462;10.846;2022-10-16T03:57:39;12.7;92.4
74484;SHT31;62942;52.462;10.846;2022-10-16T03:58:39;12.7;92.5
74484;SHT31;62942;52.462;10.846;2022-10-16T03:59:49;12.6;92.5
74484;SHT31;62942;52.462;10.846;2022-10-16T04:00:49;12.6;92.5
74484;SHT31;62942;52.462;10.846;2022-10-16T04:01:59;12.6;92.5
74484;SHT31;62942;52.462;10.846;2022-10-16T04:02:59;12.6;92.5
74484;SHT31;62942;52.462;10.846;2022-10-16T04:04:09;12.6;92.5
74484;SHT31;62942;52.462;10.846;2022-10-16T04:05:09;12.5;92.5
74484;SHT31;62942;52.462;10.846;2022-10-16T04:06:19;12.5;92.6
74484;SHT31;62942;52.462;10.846;2022-10-16T04:07:19;12.5;92.6
74484;SHT31;62942;52.462;10.846;2022-10-16T04:08:29;12.5;92.7
74484;SHT31;62942;52.462;10.846;2022-10-16T04:09:39;12.5;92.7
74484;SHT31;62942;52.462;10.846;2022-10-16T04:10:48;12.5;92.8
74484;SHT31;62942;52.462;10.846;2022-10-16T04:11:49;12.4;92.8
74484;SHT31;62942;52.462;10.846;2022-10-16T04:12:49;12.4;92.9
74484;SHT31;62942;52.462;10.846;2022-10-16T04:13:59;12.4;92.9
74484;SHT31;62942;52.462;10.846;2022-10-16T04:15:09;12.4;92.9
74484;SHT31;62942;52.462;10.846;2022-10-16T04:16:18;12.4;93.1
74484;SHT31;62942;52.462;10.846;2022-10-16T04:17:19;12.4;93.1
74484;SHT31;62942;52.462;10.846;2022-10-16T04:18:19;12.4;93.2
74484;SHT31;62942;52.462;10.846;2022-10-16T04:19:29;12.4;93.2
74484;SHT31;62942;52.462;10.846;2022-10-16T04:20:28;12.3;93.2
74484;SHT31;62942;52.462;10.846;2022-10-16T04:21:38;12.4;93.2
74484;SHT31;62942;52.462;10.846;2022-10-16T04:22:39;12.4;93.2
74484;SHT31;62942;52.462;10.846;2022-10-16T04:23:48;12.3;93.3
74484;SHT31;62942;52.462;10.846;2022-10-16T04:24:58;12.4;93.3
74484;SHT31;62942;52.462;10.846;2022-10-16T04:26:09;12.3;93.3
74484;SHT31;62942;52.462;10.846;2022-10-16T04:27:18;12.3;93.2
74484;SHT31;62942;52.462;10.846;2022-10-16T04:28:18;12.3;93.2
74484;SHT31;62942;52.462;10.846;2022-10-16T04:29:28;12.3;93.3
74484;SHT31;62942;52.462;10.846;2022-10-16T04:30:38;12.3;93.4
74484;SHT31;62942;52.462;10.846;2022-10-16T04:31:49;12.3;93.3
74484;SHT31;62942;52.462;10.846;2022-10-16T04:32:58;12.2;93.3
74484;SHT31;62942;52.462;10.846;2022-10-16T04:34:08;12.2;93.3
74484;SHT31;62942;52.462;10.846;2022-10-16T04:35:19;12.2;93.3
74484;SHT31;62942;52.462;10.846;2022-10-16T04:36:28;12.2;93.3
74484;SHT31;62942;52.462;10.846;2022-10-16T04:37:38;12.1;93.3
74484;SHT31;62942;52.462;10.846;2022-10-16T04:38:48;12.1;93.3
74484;SHT31;62942;52.462;10.846;2022-10-16T04:39:58;12.1;93.3
74484;SHT31;62942;52.462;10.846;2022-10-16T04:41:08;12.1;93.5
74484;SHT31;62942;52.462;10.846;2022-10-16T04:42:19;12.1;93.5
74484;SHT31;62942;52.462;10.846;2022-10-16T04:43:19;12;93.5
74484;SHT31;62942;52.462;10.846;2022-10-16T04:44:28;12;93.6
74484;SHT31;62942;52.462;10.846;2022-10-16T04:45:38;12;93.6
74484;SHT31;62942;52.462;10.846;2022-10-16T04:46:38;12;93.7
74484;SHT31;62942;52.462;10.846;2022-10-16T04:47:48;11.9;93.7
74484;SHT31;62942;52.462;10.846;2022-10-16T04:48:58;11.9;93.7
74484;SHT31;62942;52.462;10.846;2022-10-16T04:49:59;11.9;93.8
74484;SHT31;62942;52.462;10.846;2022-10-16T04:51:08;11.9;93.8
74484;SHT31;62942;52.462;10.846;2022-10-16T04:52:08;11.9;93.9
74484;SHT31;62942;52.462;10.846;2022-10-16T04:53:18;11.9;94
74484;SHT31;62942;52.462;10.846;2022-10-16T04:54:18;11.9;94
74484;SHT31;62942;52.462;10.846;2022-10-16T04:55:18;11.8;94
74484;SHT31;62942;52.462;10.846;2022-10-16T04:56:28;11.8;94.1
74484;SHT31;62942;52.462;10.846;2022-10-16T04:57:29;11.8;94.1
74484;SHT31;62942;52.462;10.846;2022-10-16T04:58:38;11.8;94.2
74484;SHT31;62942;52.462;10.846;2022-10-16T04:59:48;11.8;94.3
74484;SHT31;62942;52.462;10.846;2022-10-16T05:00:58;11.9;94.4
74484;SHT31;62942;52.462;10.846;2022-10-16T05:01:58;11.9;94.5
74484;SHT31;62942;52.462;10.846;2022-10-16T05:02:58;11.9;94.5
74484;SHT31;62942;52.462;10.846;2022-10-16T05:04:08;11.9;94.5
74484;SHT31;62942;52.462;10.846;2022-10-16T05:05:08;11.9;94.6
74484;SHT31;62942;52.462;10.846;2022-10-16T05:06:09;11.9;94.6
74484;SHT31;62942;52.462;10.846;2022-10-16T05:07:08;11.9;94.6
74484;SHT31;62942;52.462;10.846;2022-10-16T05:08:18;11.9;94.5
74484;SHT31;62942;52.462;10.846;2022-10-16T05:09:28;11.9;94.5
74484;SHT31;62942;52.462;10.846;2022-10-16T05:10:39;11.9;94.5
74484;SHT31;62942;52.462;10.846;2022-10-16T05:11:48;11.9;94.4
74484;SHT31;62942;52.462;10.846;2022-10-16T05:12:48;11.9;94.4
74484;SHT31;62942;52.462;10.846;2022-10-16T05:13:59;11.9;94.4
74484;SHT31;62942;52.462;10.846;2022-10-16T05:14:58;11.9;94.3
74484;SHT31;62942;52.462;10.846;2022-10-16T05:15:58;11.8;94.2
74484;SHT31;62942;52.462;10.846;2022-10-16T05:17:08;11.8;94.1
74484;SHT31;62942;52.462;10.846;2022-10-16T05:18:19;11.8;94.1
74484;SHT31;62942;52.462;10.846;2022-10-16T05:19:18;11.8;94.2
74484;SHT31;62942;52.462;10.846;2022-10-16T05:20:19;11.8;94.3
74484;SHT31;62942;52.462;10.846;2022-10-16T05:21:28;11.8;94.3
74484;SHT31;62942;52.462;10.846;2022-10-16T05:22:28;11.8;94.2
74484;SHT31;62942;52.462;10.846;2022-10-16T05:23:38;11.7;94.2
74484;SHT31;62942;52.462;10.846;2022-10-16T05:24:48;11.7;94.3
74484;SHT31;62942;52.462;10.846;2022-10-16T05:25:52;11.7;94.3
74484;SHT31;62942;52.462;10.846;2022-10-16T05:26:58;11.7;94.4
74484;SHT31;62942;52.462;10.846;2022-10-16T05:28:08;11.7;94.3
74484;SHT31;62942;52.462;10.846;2022-10-16T05:29:18;11.7;94.4
74484;SHT31;62942;52.462;10.846;2022-10-16T05:30:18;11.7;94.4
74484;SHT31;62942;52.462;10.846;2022-10-16T05:31:28;11.6;94.4
74484;SHT31;62942;52.462;10.846;2022-10-16T05:32:28;11.6;94.4
74484;SHT31;62942;52.462;10.846;2022-10-16T05:33:38;11.6;94.4
74484;SHT31;62942;52.462;10.846;2022-10-16T05:34:38;11.6;94.4
74484;SHT31;62942;52.462;10.846;2022-10-16T05:35:49;11.6;94.5
74484;SHT31;62942;52.462;10.846;2022-10-16T05:36:48;11.6;94.6
74484;SHT31;62942;52.462;10.846;2022-10-16T05:37:58;11.6;94.7
74484;SHT31;62942;52.462;10.846;2022-10-16T05:39:08;11.6;94.8
74484;SHT31;62942;52.462;10.846;2022-10-16T05:40:09;11.7;94.9
74484;SHT31;62942;52.462;10.846;2022-10-16T05:41:19;11.7;95
74484;SHT31;62942;52.462;10.846;2022-10-16T05:42:28;11.7;95.1
74484;SHT31;62942;52.462;10.846;2022-10-16T05:43:29;11.7;95.2
74484;SHT31;62942;52.462;10.846;2022-10-16T05:44:38;11.8;95.3
74484;SHT31;62942;52.462;10.846;2022-10-16T05:45:38;11.8;95.4
74484;SHT31;62942;52.462;10.846;2022-10-16T05:46:48;11.8;95.4
74484;SHT31;62942;52.462;10.846;2022-10-16T05:47:48;11.8;95.4
74484;SHT31;62942;52.462;10.846;2022-10-16T05:48:58;11.9;95.4
74484;SHT31;62942;52.462;10.846;2022-10-16T05:50:08;11.9;95.4
74484;SHT31;62942;52.462;10.846;2022-10-16T05:51:10;11.9;95.5
74484;SHT31;62942;52.462;10.846;2022-10-16T05:52:18;11.9;95.4
74484;SHT31;62942;52.462;10.846;2022-10-16T05:53:29;11.9;95.4
74484;SHT31;62942;52.462;10.846;2022-10-16T05:54:38;11.9;95.4
74484;SHT31;62942;52.462;10.846;2022-10-16T05:55:38;11.9;95.4
74484;SHT31;62942;52.462;10.846;2022-10-16T05:56:48;11.9;95.3
74484;SHT31;62942;52.462;10.846;2022-10-16T05:57:58;12;95.4
74484;SHT31;62942;52.462;10.846;2022-10-16T05:59:08;12;95.4
74484;SHT31;62942;52.462;10.846;2022-10-16T06:00:09;12;95.3
74484;SHT31;62942;52.462;10.846;2022-10-16T06:01:09;11.9;95.3
74484;SHT31;62942;52.462;10.846;2022-10-16T06:02:10;11.9;95.3
74484;SHT31;62942;52.462;10.846;2022-10-16T06:03:18;11.9;95.2
74484;SHT31;62942;52.462;10.846;2022-10-16T06:04:18;11.9;95.2
74484;SHT31;62942;52.462;10.846;2022-10-16T06:05:28;11.9;95.1
74484;SHT31;62942;52.462;10.846;2022-10-16T06:06:38;11.9;95
74484;SHT31;62942;52.462;10.846;2022-10-16T06:07:48;11.9;95
74484;SHT31;62942;52.462;10.846;2022-10-16T06:08:48;11.9;95
74484;SHT31;62942;52.462;10.846;2022-10-16T06:09:58;11.9;95
74484;SHT31;62942;52.462;10.846;2022-10-16T06:11:09;11.8;95.1
74484;SHT31;62942;52.462;10.846;2022-10-16T06:12:18;11.8;95
74484;SHT31;62942;52.462;10.846;2022-10-16T06:13:18;11.8;95
74484;SHT31;62942;52.462;10.846;2022-10-16T06:14:28;11.8;95
74484;SHT31;62942;52.462;10.846;2022-10-16T06:15:39;11.8;95
74484;SHT31;62942;52.462;10.846;2022-10-16T06:16:48;11.7;94.9
74484;SHT31;62942;52.462;10.846;2022-10-16T06:17:48;11.7;95
74484;SHT31;62942;52.462;10.846;2022-10-16T06:18:58;11.7;94.9
74484;SHT31;62942;52.462;10.846;2022-10-16T06:20:08;11.7;94.9
74484;SHT31;62942;52.462;10.846;2022-10-16T06:21:19;11.7;95
74484;SHT31;62942;52.462;10.846;2022-10-16T06:22:28;11.7;95.1
74484;SHT31;62942;52.462;10.846;2022-10-16T06:23:28;11.8;95.2
74484;SHT31;62942;52.462;10.846;2022-10-16T06:24:38;11.8;95.3
74484;SHT31;62942;52.462;10.846;2022-10-16T06:25:48;11.8;95.3
74484;SHT31;62942;52.462;10.846;2022-10-16T06:26:58;11.8;95.4
74484;SHT31;62942;52.462;10.846;2022-10-16T06:27:58;11.8;95.5
74484;SHT31;62942;52.462;10.846;2022-10-16T06:29:08;11.9;95.5
74484;SHT31;62942;52.462;10.846;2022-10-16T06:30:18;11.9;95.5
74484;SHT31;62942;52.462;10.846;2022-10-16T06:31:18;12;95.5
74484;SHT31;62942;52.462;10.846;2022-10-16T06:32:28;12;95.5
74484;SHT31;62942;52.462;10.846;2022-10-16T06:33:28;12;95.5
74484;SHT31;62942;52.462;10.846;2022-10-16T06:34:38;12.1;95.5
74484;SHT31;62942;52.462;10.846;2022-10-16T06:35:38;12.1;95.6
74484;SHT31;62942;52.462;10.846;2022-10-16T06:36:48;12.1;95.5
74484;SHT31;62942;52.462;10.846;2022-10-16T06:37:48;12.2;95.5
74484;SHT31;62942;52.462;10.846;2022-10-16T06:38:58;12.2;95.4
74484;SHT31;62942;52.462;10.846;2022-10-16T06:39:58;12.3;95.4
74484;SHT31;62942;52.462;10.846;2022-10-16T06:41:09;12.3;95.3
74484;SHT31;62942;52.462;10.846;2022-10-16T06:42:08;12.4;95.3
74484;SHT31;62942;52.462;10.846;2022-10-16T06:43:18;12.4;95.2
74484;SHT31;62942;52.462;10.846;2022-10-16T06:44:18;12.5;95.1
74484;SHT31;62942;52.462;10.846;2022-10-16T06:45:28;12.6;95
74484;SHT31;62942;52.462;10.846;2022-10-16T06:46:28;12.6;94.9
74484;SHT31;62942;52.462;10.846;2022-10-16T06:47:38;12.7;94.8
74484;SHT31;62942;52.462;10.846;2022-10-16T06:48:48;12.8;94.5
74484;SHT31;62942;52.462;10.846;2022-10-16T06:49:58;12.9;94.3
74484;SHT31;62942;52.462;10.846;2022-10-16T06:51:10;13;94
74484;SHT31;62942;52.462;10.846;2022-10-16T06:52:08;13;93.7
74484;SHT31;62942;52.462;10.846;2022-10-16T06:53:08;13.1;93.4
74484;SHT31;62942;52.462;10.846;2022-10-16T06:54:18;13.1;93.1
74484;SHT31;62942;52.462;10.846;2022-10-16T06:55:18;13.1;93
74484;SHT31;62942;52.462;10.846;2022-10-16T06:56:29;13.2;92.7
74484;SHT31;62942;52.462;10.846;2022-10-16T06:57:38;13.4;92.6
74484;SHT31;62942;52.462;10.846;2022-10-16T06:58:49;13.4;92.4
74484;SHT31;62942;52.462;10.846;2022-10-16T06:59:58;13.5;91.9
74484;SHT31;62942;52.462;10.846;2022-10-16T07:01:08;13.6;91.6
74484;SHT31;62942;52.462;10.846;2022-10-16T07:02:08;13.6;91.3
74484;SHT31;62942;52.462;10.846;2022-10-16T07:03:18;13.7;91.1
74484;SHT31;62942;52.462;10.846;2022-10-16T07:04:28;13.8;90.9
74484;SHT31;62942;52.462;10.846;2022-10-16T07:05:38;13.9;90.7
74484;SHT31;62942;52.462;10.846;2022-10-16T07:06:38;14;90.5
74484;SHT31;62942;52.462;10.846;2022-10-16T07:07:48;14.1;90.2
74484;SHT31;62942;52.462;10.846;2022-10-16T07:09:00;14.2;89.7
74484;SHT31;62942;52.462;10.846;2022-10-16T07:10:08;14.4;89.3
74484;SHT31;62942;52.462;10.846;2022-10-16T07:11:19;14.4;88.9